createdAt,value
2017-06-18T00:02:15.824Z,87.50
2017-06-18T00:04:42.204Z,86.70
2017-06-18T00:07:09.347Z,86.30
2017-06-18T00:09:35.728Z,86.30
2017-06-18T00:12:02.962Z,86.60
2017-06-18T00:14:29.459Z,86.50
2017-06-18T00:16:55.861Z,87.40
2017-06-18T00:19:23.155Z,87.50
2017-06-18T00:21:49.543Z,87.50
2017-06-18T00:24:16.676Z,87.20
2017-06-18T00:26:43.837Z,87.10
2017-06-18T00:29:10.305Z,87.00
2017-06-18T00:31:36.675Z,87.20
2017-06-18T00:34:03.096Z,87.50
2017-06-18T00:36:29.548Z,87.90
2017-06-18T00:38:55.955Z,87.50
2017-06-18T00:41:23.079Z,87.70
2017-06-18T00:43:49.655Z,87.70
2017-06-18T00:46:16.025Z,87.90
2017-06-18T00:48:42.443Z,87.90
2017-06-18T00:51:08.980Z,88.90
2017-06-18T00:53:35.367Z,88.50
2017-06-18T00:56:01.767Z,88.60
2017-06-18T00:58:28.896Z,90.00
2017-06-18T01:00:55.333Z,89.10
2017-06-18T01:03:22.455Z,89.40
2017-06-18T01:05:48.907Z,89.40
2017-06-18T01:08:15.304Z,89.40
2017-06-18T01:10:41.713Z,89.20
2017-06-18T01:13:08.323Z,89.00
2017-06-18T01:15:34.736Z,89.30
2017-06-18T01:18:01.133Z,89.10
2017-06-18T01:20:27.633Z,89.60
2017-06-18T01:22:54.286Z,89.70
2017-06-18T01:25:20.756Z,89.70
2017-06-18T01:27:47.240Z,90.00
2017-06-18T01:30:13.703Z,89.80
2017-06-18T01:32:40.272Z,89.90
2017-06-18T01:35:06.711Z,89.20
2017-06-18T01:37:33.119Z,89.50
2017-06-18T01:39:59.560Z,89.20
2017-06-18T01:42:25.968Z,89.60
2017-06-18T01:44:52.384Z,89.20
2017-06-18T01:47:18.779Z,89.80
2017-06-18T01:49:45.204Z,90.00
2017-06-18T01:52:11.644Z,90.10
2017-06-18T01:54:38.041Z,90.20
2017-06-18T01:57:04.494Z,90.60
2017-06-18T01:59:30.865Z,90.00
2017-06-18T02:01:57.448Z,89.60
2017-06-18T02:04:24.171Z,89.40
2017-06-18T02:06:50.597Z,89.40
2017-06-18T02:09:17.703Z,89.40
2017-06-18T02:11:44.931Z,89.20
2017-06-18T02:14:11.331Z,89.70
2017-06-18T02:16:37.693Z,89.40
2017-06-18T02:19:04.180Z,89.40
2017-06-18T02:21:30.596Z,89.10
2017-06-18T02:23:57.003Z,89.40
2017-06-18T02:26:23.415Z,89.80
2017-06-18T02:28:49.788Z,89.50
2017-06-18T02:31:16.240Z,89.70
2017-06-18T02:33:42.861Z,90.00
2017-06-18T02:36:09.344Z,89.80
2017-06-18T02:38:35.744Z,90.00
2017-06-18T02:41:02.180Z,90.20
2017-06-18T02:43:28.641Z,89.90
2017-06-18T02:45:55.045Z,89.90
2017-06-18T02:48:21.448Z,89.90
2017-06-18T02:50:47.864Z,90.00
2017-06-18T02:53:14.292Z,90.40
2017-06-18T02:55:40.744Z,90.40
2017-06-18T02:58:07.348Z,90.10
2017-06-18T03:00:33.888Z,90.10
2017-06-18T03:03:00.304Z,90.00
2017-06-18T03:05:26.750Z,90.00
2017-06-18T03:07:53.236Z,90.10
2017-06-18T03:10:24.755Z,90.00
2017-06-18T03:12:51.231Z,90.10
2017-06-18T03:15:18.376Z,90.20
2017-06-18T03:17:44.794Z,90.20
2017-06-18T03:20:11.211Z,90.30
2017-06-18T03:22:37.647Z,90.30
2017-06-18T03:25:04.103Z,90.30
2017-06-18T03:27:30.564Z,90.20
2017-06-18T03:29:56.967Z,90.10
2017-06-18T03:32:23.359Z,90.30
2017-06-18T03:34:49.796Z,90.30
2017-06-18T03:37:16.982Z,90.50
2017-06-18T03:39:43.820Z,90.50
2017-06-18T03:42:10.241Z,90.30
2017-06-18T03:44:36.632Z,90.40
2017-06-18T03:47:03.251Z,90.70
2017-06-18T03:49:29.666Z,90.40
2017-06-18T03:51:56.243Z,90.40
2017-06-18T03:54:22.620Z,90.30
2017-06-18T03:56:48.987Z,90.60
2017-06-18T03:59:15.356Z,90.60
2017-06-18T04:01:41.785Z,90.70
2017-06-18T04:04:08.143Z,90.30
2017-06-18T04:06:34.704Z,90.30
2017-06-18T04:09:01.121Z,90.10
2017-06-18T04:11:27.480Z,90.40
2017-06-18T04:13:54.632Z,89.30
2017-06-18T04:16:21.046Z,89.30
2017-06-18T04:18:47.451Z,89.10
2017-06-18T04:21:14.811Z,89.20
2017-06-18T04:23:41.207Z,89.10
2017-06-18T04:26:08.343Z,89.20
2017-06-18T04:28:34.952Z,89.10
2017-06-18T04:31:01.425Z,89.30
2017-06-18T04:33:27.810Z,89.70
2017-06-18T04:35:54.216Z,88.70
2017-06-18T04:38:20.588Z,86.80
2017-06-18T04:40:46.984Z,86.50
2017-06-18T04:43:13.408Z,87.40
2017-06-18T04:45:39.831Z,86.80
2017-06-18T04:48:06.255Z,87.10
2017-06-18T04:50:32.655Z,85.70
2017-06-18T04:52:59.065Z,85.90
2017-06-18T04:55:25.468Z,86.80
2017-06-18T04:57:52.011Z,86.00
2017-06-18T05:00:18.687Z,85.60
2017-06-18T05:02:45.040Z,85.10
2017-06-18T05:05:12.146Z,84.00
2017-06-18T05:07:38.539Z,84.00
2017-06-18T05:10:05.742Z,83.80
2017-06-18T05:12:32.158Z,83.80
2017-06-18T05:14:58.564Z,83.00
2017-06-18T05:17:24.963Z,84.90
2017-06-18T05:19:51.367Z,84.70
2017-06-18T05:22:17.751Z,83.90
2017-06-18T05:24:44.179Z,83.50
2017-06-18T05:27:10.551Z,84.20
2017-06-18T05:29:36.972Z,83.90
2017-06-18T05:32:03.354Z,84.70
2017-06-18T05:34:29.737Z,84.50
2017-06-18T05:36:56.135Z,84.20
2017-06-18T05:39:22.552Z,84.40
2017-06-18T05:41:48.931Z,81.90
2017-06-18T05:44:15.366Z,83.70
2017-06-18T05:46:41.732Z,81.90
2017-06-18T05:49:08.140Z,80.50
2017-06-18T05:51:34.488Z,80.80
2017-06-18T05:54:00.898Z,82.60
2017-06-18T05:56:27.324Z,83.40
2017-06-18T05:58:53.715Z,83.40
2017-06-18T06:01:20.112Z,81.40
2017-06-18T06:03:46.565Z,81.50
2017-06-18T06:06:12.956Z,82.10
2017-06-18T06:08:39.332Z,81.10
2017-06-18T06:11:05.741Z,80.10
2017-06-18T06:13:32.139Z,81.20
2017-06-18T06:15:58.500Z,82.10
2017-06-18T06:18:26.241Z,82.10
2017-06-18T06:20:52.668Z,78.70
2017-06-18T06:23:19.035Z,78.30
2017-06-18T06:25:45.474Z,79.60
2017-06-18T06:28:11.857Z,79.50
2017-06-18T06:30:39.232Z,78.30
2017-06-18T06:33:05.664Z,78.70
2017-06-18T06:35:32.056Z,78.70
2017-06-18T06:37:58.471Z,76.70
2017-06-18T06:40:24.860Z,77.90
2017-06-18T06:42:51.272Z,78.00
2017-06-18T06:45:17.772Z,77.60
2017-06-18T06:47:44.169Z,76.50
2017-06-18T06:50:10.630Z,76.30
2017-06-18T06:52:37.064Z,75.30
2017-06-18T06:55:03.467Z,76.80
2017-06-18T06:57:30.579Z,74.40
2017-06-18T06:59:56.988Z,74.40
2017-06-18T07:02:23.408Z,73.20
2017-06-18T07:04:49.807Z,73.60
2017-06-18T07:07:16.208Z,74.40
2017-06-18T07:09:42.571Z,71.90
2017-06-18T07:12:08.940Z,71.00
2017-06-18T07:14:35.315Z,70.60
2017-06-18T07:17:02.462Z,71.30
2017-06-18T07:19:29.591Z,67.40
2017-06-18T07:21:56.001Z,67.20
2017-06-18T07:24:22.493Z,68.90
2017-06-18T07:26:48.935Z,69.60
2017-06-18T07:29:15.344Z,66.20
2017-06-18T07:31:41.736Z,68.40
2017-06-18T07:34:08.172Z,68.70
2017-06-18T07:36:34.655Z,68.10
2017-06-18T07:39:01.104Z,65.10
2017-06-18T07:41:27.496Z,67.80
2017-06-18T07:43:53.883Z,64.50
2017-06-18T07:46:21.100Z,61.90
2017-06-18T07:48:47.571Z,62.80
2017-06-18T07:51:13.952Z,62.00
2017-06-18T07:53:41.164Z,63.30
2017-06-18T07:56:07.555Z,63.30
2017-06-18T07:58:34.160Z,61.30
2017-06-18T08:01:00.554Z,64.70
2017-06-18T08:03:26.984Z,65.00
2017-06-18T08:05:53.388Z,63.60
2017-06-18T08:08:19.797Z,60.30
2017-06-18T08:10:46.208Z,62.00
2017-06-18T08:13:13.373Z,61.90
2017-06-18T08:15:39.760Z,61.90
2017-06-18T08:18:06.237Z,59.40
2017-06-18T08:20:32.612Z,60.30
2017-06-18T08:22:58.984Z,64.50
2017-06-18T08:25:26.111Z,62.10
2017-06-18T08:27:52.532Z,61.30
2017-06-18T08:30:19.020Z,63.90
2017-06-18T08:32:45.484Z,60.90
2017-06-18T08:35:11.999Z,60.00
2017-06-18T08:37:38.375Z,58.70
2017-06-18T08:40:04.844Z,59.30
2017-06-18T08:42:31.981Z,61.00
2017-06-18T08:44:58.376Z,61.40
2017-06-18T08:47:24.858Z,59.50
2017-06-18T08:49:51.285Z,59.00
2017-06-18T08:52:17.684Z,56.50
2017-06-18T08:54:44.242Z,57.80
2017-06-18T08:57:10.596Z,58.00
2017-06-18T08:59:37.736Z,56.90
2017-06-18T09:02:04.224Z,56.90
2017-06-18T09:04:30.595Z,56.50
2017-06-18T09:06:57.165Z,56.80
2017-06-18T09:09:23.564Z,59.30
2017-06-18T09:11:50.031Z,55.00
2017-06-18T09:14:16.467Z,54.90
2017-06-18T09:16:42.836Z,56.20
2017-06-18T09:19:09.188Z,53.50
2017-06-18T09:21:35.610Z,51.30
2017-06-18T09:24:02.085Z,52.80
2017-06-18T09:26:28.639Z,53.20
2017-06-18T09:28:55.040Z,52.10
2017-06-18T09:31:21.391Z,50.30
2017-06-18T09:33:47.763Z,53.50
2017-06-18T09:36:14.167Z,50.50
2017-06-18T09:38:40.587Z,45.10
2017-06-18T09:41:06.968Z,45.10
2017-06-18T09:43:33.360Z,44.40
2017-06-18T09:45:59.783Z,42.80
2017-06-18T09:48:26.172Z,40.50
2017-06-18T09:50:52.585Z,42.60
2017-06-18T09:53:19.161Z,40.30
2017-06-18T09:55:46.263Z,43.60
2017-06-18T09:58:12.613Z,43.50
2017-06-18T10:00:39.740Z,39.60
2017-06-18T10:03:06.180Z,39.60
2017-06-18T10:05:32.625Z,41.50
2017-06-18T10:07:59.041Z,39.40
2017-06-18T10:10:25.440Z,39.30
2017-06-18T10:12:51.894Z,41.60
2017-06-18T10:15:18.303Z,44.10
2017-06-18T10:17:44.779Z,44.30
2017-06-18T10:20:11.207Z,47.80
2017-06-18T10:22:37.656Z,48.50
2017-06-18T10:25:03.980Z,47.80
2017-06-18T10:27:30.411Z,49.90
2017-06-18T10:29:56.787Z,46.10
2017-06-18T10:32:23.151Z,48.00
2017-06-18T10:34:49.667Z,48.70
2017-06-18T10:37:16.244Z,47.50
2017-06-18T10:39:42.661Z,48.70
2017-06-18T10:42:09.078Z,46.50
2017-06-18T10:44:35.724Z,47.10
2017-06-18T10:47:02.140Z,47.70
2017-06-18T10:49:28.564Z,46.10
2017-06-18T10:51:54.958Z,47.60
2017-06-18T10:54:21.370Z,45.60
2017-06-18T10:56:47.813Z,47.50
2017-06-18T10:59:14.228Z,50.10
2017-06-18T11:01:40.623Z,47.70
2017-06-18T11:04:06.972Z,45.20
2017-06-18T11:06:33.492Z,47.10
2017-06-18T11:08:59.964Z,46.00
2017-06-18T11:11:27.068Z,46.90
2017-06-18T11:13:53.484Z,46.90
2017-06-18T11:16:20.112Z,46.30
2017-06-18T11:18:46.471Z,46.60
2017-06-18T11:21:13.003Z,46.30
2017-06-18T11:23:39.446Z,45.40
2017-06-18T11:26:05.922Z,47.90
2017-06-18T11:28:32.345Z,45.70
2017-06-18T11:30:58.749Z,45.70
2017-06-18T11:33:25.096Z,44.10
2017-06-18T11:35:51.491Z,48.30
2017-06-18T11:38:17.888Z,45.50
2017-06-18T11:40:44.244Z,48.80
2017-06-18T11:43:10.726Z,47.20
2017-06-18T11:45:37.127Z,48.40
2017-06-18T11:48:04.212Z,45.60
2017-06-18T11:50:30.577Z,45.00
2017-06-18T11:52:57.016Z,47.30
2017-06-18T11:55:23.419Z,46.30
2017-06-18T11:57:49.853Z,45.60
2017-06-18T12:00:16.308Z,44.20
2017-06-18T12:02:42.819Z,44.70
2017-06-18T12:05:09.263Z,44.20
2017-06-18T12:07:35.709Z,47.60
2017-06-18T12:10:02.073Z,45.60
2017-06-18T12:12:28.500Z,44.00
2017-06-18T12:14:54.908Z,44.90
2017-06-18T12:17:21.349Z,45.50
2017-06-18T12:19:47.792Z,44.60
2017-06-18T12:22:14.163Z,45.60
2017-06-18T12:24:40.704Z,46.40
2017-06-18T12:27:07.843Z,43.80
2017-06-18T12:29:34.220Z,43.80
2017-06-18T12:32:00.659Z,39.60
2017-06-18T12:34:27.012Z,37.80
2017-06-18T12:36:53.409Z,35.20
2017-06-18T12:39:20.694Z,33.10
2017-06-18T12:41:47.144Z,33.00
2017-06-18T12:44:13.556Z,33.60
2017-06-18T12:46:39.955Z,35.40
2017-06-18T12:49:06.436Z,31.40
2017-06-18T12:51:32.883Z,26.90
2017-06-18T12:53:59.283Z,27.30
2017-06-18T12:56:26.460Z,24.60
2017-06-18T12:58:52.864Z,24.50
2017-06-18T13:01:19.220Z,24.30
2017-06-18T13:03:45.647Z,23.70
2017-06-18T13:06:12.076Z,22.30
2017-06-18T13:08:38.548Z,23.50
2017-06-18T13:11:04.945Z,25.10
2017-06-18T13:13:31.356Z,27.00
2017-06-18T13:15:57.864Z,24.20
2017-06-18T13:18:24.352Z,22.40
2017-06-18T13:20:50.783Z,23.60
2017-06-18T13:23:17.192Z,20.80
2017-06-18T13:25:43.611Z,20.50
2017-06-18T13:28:09.981Z,23.30
2017-06-18T13:30:40.516Z,23.30
2017-06-18T13:33:06.944Z,21.80
2017-06-18T13:35:33.368Z,21.70
2017-06-18T13:38:00.488Z,19.10
2017-06-18T13:40:26.940Z,19.00
2017-06-18T13:42:53.329Z,18.90
2017-06-18T13:45:20.540Z,19.00
2017-06-18T13:47:47.017Z,18.90
2017-06-18T13:50:13.384Z,18.70
2017-06-18T13:52:39.865Z,18.50
2017-06-18T13:55:06.261Z,17.90
2017-06-18T13:57:32.809Z,17.30
2017-06-18T13:59:59.143Z,19.70
2017-06-18T14:02:25.589Z,17.60
2017-06-18T14:04:51.980Z,16.70
2017-06-18T14:07:18.383Z,15.90
2017-06-18T14:09:44.756Z,17.30
2017-06-18T14:12:11.157Z,16.70
2017-06-18T14:14:37.518Z,15.70
2017-06-18T14:17:03.939Z,15.60
2017-06-18T14:19:30.346Z,16.80
2017-06-18T14:21:56.775Z,16.30
2017-06-18T14:24:23.155Z,17.40
2017-06-18T14:26:49.545Z,16.90
2017-06-18T14:29:15.984Z,17.00
2017-06-18T14:31:43.177Z,17.50
2017-06-18T14:34:09.664Z,17.60
2017-06-18T14:36:35.999Z,17.10
2017-06-18T14:39:02.433Z,17.10
2017-06-18T14:41:28.869Z,16.80
2017-06-18T14:43:55.220Z,17.80
2017-06-18T14:46:21.603Z,18.10
2017-06-18T14:48:48.143Z,17.60
2017-06-18T14:51:15.242Z,17.30
2017-06-18T14:53:41.634Z,16.90
2017-06-18T14:56:08.060Z,17.50
2017-06-18T14:58:34.567Z,18.10
2017-06-18T15:01:00.948Z,19.70
2017-06-18T15:03:27.376Z,21.50
2017-06-18T15:05:53.789Z,22.40
2017-06-18T15:08:20.188Z,23.40
2017-06-18T15:10:46.608Z,25.30
2017-06-18T15:13:13.054Z,24.60
2017-06-18T15:15:39.488Z,25.70
2017-06-18T15:18:05.901Z,25.80
2017-06-18T15:20:32.343Z,25.80
2017-06-18T15:22:58.690Z,26.30
2017-06-18T15:25:25.177Z,26.50
2017-06-18T15:27:51.743Z,28.40
2017-06-18T15:30:18.870Z,29.30
2017-06-18T15:32:45.317Z,29.20
2017-06-18T15:35:11.816Z,31.40
2017-06-18T15:37:38.315Z,30.00
2017-06-18T15:40:04.720Z,30.60
2017-06-18T15:42:31.100Z,30.90
2017-06-18T15:44:57.573Z,32.80
2017-06-18T15:47:23.984Z,34.10
2017-06-18T15:49:50.345Z,33.30
2017-06-18T15:52:16.730Z,32.90
2017-06-18T15:54:43.144Z,33.30
2017-06-18T15:57:09.674Z,34.80
2017-06-18T15:59:36.140Z,36.80
2017-06-18T16:02:02.706Z,35.80
2017-06-18T16:04:29.090Z,34.10
2017-06-18T16:06:55.509Z,34.30
2017-06-18T16:09:22.659Z,35.10
2017-06-18T16:11:49.057Z,34.50
2017-06-18T16:14:15.444Z,35.00
2017-06-18T16:16:41.803Z,36.40
2017-06-18T16:19:08.211Z,35.50
2017-06-18T16:21:35.380Z,37.50
2017-06-18T16:24:01.732Z,36.80
2017-06-18T16:26:28.128Z,37.70
2017-06-18T16:28:55.271Z,38.50
2017-06-18T16:31:21.663Z,38.00
2017-06-18T16:33:48.098Z,37.60
2017-06-18T16:36:14.699Z,37.10
2017-06-18T16:38:41.084Z,38.40
2017-06-18T16:41:07.446Z,39.60
2017-06-18T16:43:33.916Z,38.80
2017-06-18T16:46:40.242Z,39.00
2017-06-18T16:49:12.884Z,40.60
2017-06-18T16:51:45.911Z,40.50
2017-06-18T16:54:18.743Z,42.70
2017-06-18T16:56:48.891Z,41.50
2017-06-18T16:59:21.723Z,43.30
2017-06-18T17:01:54.609Z,43.30
2017-06-18T17:04:27.424Z,42.70
2017-06-18T17:07:00.259Z,43.70
2017-06-18T17:09:33.277Z,46.20
2017-06-18T17:12:06.179Z,45.70
2017-06-18T17:14:39.181Z,48.20
2017-06-18T17:17:11.672Z,47.10
2017-06-18T17:19:44.585Z,47.60
2017-06-18T17:22:28.560Z,45.90
2017-06-18T17:25:01.448Z,48.70
2017-06-18T17:27:34.213Z,47.60
2017-06-18T17:30:07.091Z,47.20
2017-06-18T17:32:39.929Z,47.90
2017-06-18T17:35:12.900Z,47.90
2017-06-18T17:37:42.881Z,49.50
2017-06-18T17:40:15.625Z,50.30
2017-06-18T17:42:48.495Z,48.90
2017-06-18T17:45:21.507Z,50.50
2017-06-18T17:47:54.359Z,52.20
2017-06-18T17:50:27.275Z,50.80
2017-06-18T17:53:00.159Z,51.30
2017-06-18T17:55:33.027Z,50.80
2017-06-18T17:58:06.069Z,50.00
2017-06-18T18:00:39.202Z,50.10
2017-06-18T18:03:12.017Z,51.70
2017-06-18T18:05:45.032Z,50.40
2017-06-18T18:08:17.923Z,51.00
2017-06-18T18:10:50.735Z,50.20
2017-06-18T18:13:23.841Z,51.90
2017-06-18T18:15:56.986Z,52.10
2017-06-18T18:18:29.917Z,54.40
2017-06-18T18:21:02.749Z,54.40
2017-06-18T18:23:35.553Z,54.10
2017-06-18T18:26:08.515Z,53.30
2017-06-18T18:28:41.343Z,53.00
2017-06-18T18:31:14.367Z,55.30
2017-06-18T18:33:47.273Z,55.10
2017-06-18T18:36:20.431Z,56.00
2017-06-18T18:38:53.655Z,56.50
2017-06-18T18:41:27.444Z,57.00
2017-06-18T18:44:01.398Z,57.00
2017-06-18T18:46:35.492Z,56.60
2017-06-18T18:49:09.158Z,57.60
2017-06-18T18:51:42.758Z,59.10
2017-06-18T18:54:16.578Z,58.70
2017-06-18T18:56:50.764Z,57.70
2017-06-18T18:59:24.324Z,58.50
2017-06-18T19:01:58.527Z,58.30
2017-06-18T19:04:32.684Z,58.30
2017-06-18T19:07:06.405Z,59.20
2017-06-18T19:09:40.424Z,59.00
2017-06-18T19:12:15.168Z,58.70
2017-06-18T19:14:48.939Z,59.60
2017-06-18T19:17:23.263Z,59.20
2017-06-18T19:19:57.358Z,59.80
2017-06-18T19:22:33.066Z,60.40
2017-06-18T19:25:07.303Z,65.40
2017-06-18T19:27:38.679Z,67.70
2017-06-18T19:30:13.293Z,71.50
2017-06-18T19:32:48.469Z,72.60
2017-06-18T19:35:23.169Z,74.00
2017-06-18T19:37:57.220Z,75.00
2017-06-18T19:40:30.899Z,75.40
2017-06-18T19:43:04.829Z,77.40
2017-06-18T19:45:38.720Z,74.50
2017-06-18T19:48:12.680Z,75.20
2017-06-18T19:50:46.397Z,77.80
2017-06-18T19:53:20.301Z,77.70
2017-06-18T19:55:54.345Z,78.80
2017-06-18T19:58:28.031Z,75.50
2017-06-18T20:01:02.077Z,78.50
2017-06-18T20:03:35.917Z,79.40
2017-06-18T20:06:09.568Z,77.40
2017-06-18T20:08:43.647Z,77.80
2017-06-18T20:11:17.344Z,78.60
2017-06-18T20:13:51.484Z,78.70
2017-06-18T20:16:25.409Z,77.10
2017-06-18T20:18:59.390Z,78.90
2017-06-18T20:21:33.355Z,76.30
2017-06-18T20:24:14.358Z,76.70
2017-06-18T20:26:48.072Z,74.20
2017-06-18T20:29:22.304Z,75.10
2017-06-18T20:31:53.736Z,78.80
2017-06-18T20:34:27.851Z,76.90
2017-06-18T20:37:02.086Z,75.30
2017-06-18T20:39:36.227Z,76.70
2017-06-18T20:42:09.845Z,75.00
2017-06-18T20:44:43.875Z,75.10
2017-06-18T20:47:17.638Z,76.00
2017-06-18T20:49:51.368Z,76.90
2017-06-18T20:52:25.026Z,76.30
2017-06-18T20:54:58.348Z,78.20
2017-06-18T20:57:31.603Z,79.30
2017-06-18T21:00:04.367Z,79.90
2017-06-18T21:02:37.189Z,79.10
2017-06-18T21:05:10.254Z,79.80
2017-06-18T21:07:43.223Z,76.60
2017-06-18T21:10:16.017Z,76.10
2017-06-18T21:12:48.655Z,76.80
2017-06-18T21:15:21.614Z,75.80
2017-06-18T21:17:54.490Z,76.40
2017-06-18T21:20:26.915Z,76.10
2017-06-18T21:22:59.399Z,76.20
2017-06-18T21:25:32.339Z,76.50
2017-06-18T21:28:05.482Z,76.50
2017-06-18T21:30:38.523Z,76.00
2017-06-18T21:33:11.252Z,76.60
2017-06-18T21:35:44.136Z,76.70
2017-06-18T21:38:17.007Z,77.20
2017-06-18T21:40:47.287Z,77.80
2017-06-18T21:43:20.267Z,77.10
2017-06-18T21:45:53.219Z,77.80
2017-06-18T21:48:26.044Z,77.90
2017-06-18T21:50:59.092Z,77.90
2017-06-18T21:53:32.011Z,76.80
2017-06-18T21:56:04.855Z,78.90
2017-06-18T21:58:37.787Z,77.80
2017-06-18T22:01:10.891Z,78.60
2017-06-18T22:03:45.521Z,78.60
2017-06-18T22:06:18.863Z,78.70
2017-06-18T22:08:51.573Z,78.90
2017-06-18T22:11:24.403Z,79.00
2017-06-18T22:13:57.215Z,78.60
2017-06-18T22:16:30.889Z,79.00
2017-06-18T22:19:03.569Z,79.80
2017-06-18T22:21:36.520Z,79.50
2017-06-18T22:24:09.352Z,79.20
2017-06-18T22:26:42.355Z,81.10
2017-06-18T22:29:15.447Z,80.80
2017-06-18T22:31:48.015Z,81.60
2017-06-18T22:34:20.935Z,83.10
2017-06-18T22:36:53.941Z,81.50
2017-06-18T22:39:26.814Z,80.40
2017-06-18T22:41:59.639Z,79.90
2017-06-18T22:44:32.459Z,81.00
2017-06-18T22:47:05.424Z,80.30
2017-06-18T22:49:38.167Z,80.30
2017-06-18T22:52:11.067Z,80.40
2017-06-18T22:54:43.863Z,80.90
2017-06-18T22:57:16.815Z,81.00
2017-06-18T22:59:49.923Z,81.00
2017-06-18T23:02:22.817Z,81.80
2017-06-18T23:04:55.825Z,82.00
2017-06-18T23:07:28.826Z,80.90
2017-06-18T23:10:01.544Z,81.30
2017-06-18T23:12:34.423Z,81.30
2017-06-18T23:15:07.349Z,82.00
2017-06-18T23:17:40.144Z,81.60
2017-06-18T23:20:12.924Z,81.80
2017-06-18T23:22:45.851Z,81.80
2017-06-18T23:25:18.863Z,82.60
2017-06-18T23:27:51.475Z,82.10
2017-06-18T23:30:24.319Z,82.60
2017-06-18T23:32:56.983Z,82.80
2017-06-18T23:35:29.891Z,82.30
2017-06-18T23:38:02.799Z,82.30
2017-06-18T23:40:35.852Z,82.70
2017-06-18T23:43:08.095Z,82.60
2017-06-18T23:45:40.959Z,81.90
2017-06-18T23:48:13.883Z,81.50
2017-06-18T23:50:46.911Z,81.90
2017-06-18T23:53:19.859Z,82.80
2017-06-18T23:55:52.692Z,82.70
2017-06-18T23:58:25.816Z,82.10
